Time;durP1;ratioP1;P1;durP2;ratioP2;P2;SDS_P1;SDS_P2;PMS_P1;PMS_P2;Temp;Humidity;BMP_temperature;BMP_pressure;BME280_temperature;BME280_humidity;BME280_pressure;Samples;Min_cycle;Max_cycle;Signal;HPM_P1;HPM_P2
2023/07/31 00:01:52;;;;;;;10.60;9.77;;;;;;;20.02;100.00;92548.31;5008850;28;20218;-74
2023/07/31 00:04:18;;;;;;;11.20;10.30;;;;;;;20.03;100.00;92563.09;5009699;28;20194;-75
2023/07/31 00:06:43;;;;;;;10.70;9.90;;;;;;;20.01;100.00;92561.88;5008877;28;20229;-76
2023/07/31 00:09:08;;;;;;;10.60;9.90;;;;;;;19.99;100.00;92559.56;5009688;28;20188;-75
2023/07/31 00:11:34;;;;;;;10.65;9.82;;;;;;;20.02;100.00;92566.84;4995627;28;20294;-74
2023/07/31 00:13:59;;;;;;;11.90;11.10;;;;;;;19.92;100.00;92543.47;4990444;28;20688;-75
2023/07/31 00:16:25;;;;;;;11.63;10.73;;;;;;;19.96;100.00;92554.94;5001183;28;20226;-75
2023/07/31 00:18:50;;;;;;;11.80;10.95;;;;;;;20.00;100.00;92561.09;5009307;28;20202;-74
2023/07/31 00:21:16;;;;;;;12.25;11.45;;;;;;;20.08;100.00;92562.84;5008585;28;20227;-75
2023/07/31 00:23:41;;;;;;;12.00;10.90;;;;;;;20.13;100.00;92554.69;4999053;28;20197;-74
2023/07/31 00:26:06;;;;;;;11.80;10.90;;;;;;;19.95;100.00;92550.78;5007811;28;20221;-74
2023/07/31 00:28:32;;;;;;;11.95;11.05;;;;;;;19.97;100.00;92548.53;5008599;28;20193;-75
2023/07/31 00:30:57;;;;;;;11.27;10.55;;;;;;;19.93;100.00;92549.53;5008693;28;20223;-74
2023/07/31 00:33:22;;;;;;;11.25;10.52;;;;;;;19.96;100.00;92533.75;5009145;28;20226;-74
2023/07/31 00:35:48;;;;;;;10.93;10.23;;;;;;;19.93;100.00;92531.78;5009538;28;20229;-75
2023/07/31 00:38:14;;;;;;;10.43;9.73;;;;;;;19.81;100.00;92513.28;5013014;28;20230;-75
2023/07/31 00:40:39;;;;;;;11.15;10.45;;;;;;;19.92;100.00;92522.25;4997202;28;20267;-74
2023/07/31 00:43:05;;;;;;;9.98;9.27;;;;;;;19.89;100.00;92517.63;5003280;28;20196;-74
2023/07/31 00:45:31;;;;;;;11.27;10.48;;;;;;;19.87;100.00;92522.53;5011120;28;20276;-75
2023/07/31 00:47:57;;;;;;;11.10;10.40;;;;;;;19.85;100.00;92516.00;5012721;28;20192;-75
2023/07/31 00:50:24;;;;;;;12.10;11.32;;;;;;;19.91;100.00;92519.94;5027744;28;20244;-75
2023/07/31 00:52:50;;;;;;;11.63;10.85;;;;;;;19.74;100.00;92525.53;5012838;28;20888;-75
2023/07/31 00:55:15;;;;;;;12.18;11.27;;;;;;;19.69;100.00;92529.19;5012171;28;20190;-75
2023/07/31 00:57:41;;;;;;;12.02;11.23;;;;;;;19.76;100.00;92515.38;5012383;28;20250;-74
2023/07/31 01:00:07;;;;;;;11.35;10.65;;;;;;;19.81;100.00;92521.22;5011987;28;20197;-75
2023/07/31 01:02:33;;;;;;;11.07;10.32;;;;;;;19.86;100.00;92533.47;5012436;28;20175;-75
2023/07/31 01:04:58;;;;;;;12.00;11.20;;;;;;;19.70;100.00;92530.75;5008060;28;20179;-75
2023/07/31 01:07:35;;;;;;;12.15;11.32;;;;;;;19.62;100.00;92515.75;5003121;28;20231;-74
2023/07/31 01:10:07;;;;;;;11.07;10.38;;;;;;;19.61;100.00;92522.16;5011467;28;20178;-74
2023/07/31 01:12:34;;;;;;;11.00;10.30;;;;;;;19.57;100.00;92516.00;5012268;28;20193;-76
2023/07/31 01:15:10;;;;;;;11.97;11.17;;;;;;;19.54;100.00;92514.00;5011834;28;20178;-74
2023/07/31 01:17:36;;;;;;;12.55;11.55;;;;;;;19.50;100.00;92501.78;5011996;28;20281;-74
2023/07/31 01:20:04;;;;;;;11.48;10.57;;;;;;;19.46;100.00;92506.97;5007010;28;20198;-75
2023/07/31 01:22:32;;;;;;;13.50;12.50;;;;;;;19.40;100.00;92510.97;5007063;28;20182;-76
2023/07/31 01:25:11;;;;;;;11.83;10.97;;;;;;;19.21;100.00;92500.16;5011991;28;20197;-75
2023/07/31 01:27:49;;;;;;;12.40;11.50;;;;;;;19.14;100.00;92500.69;5011622;28;20229;-76
2023/07/31 01:30:18;;;;;;;13.77;12.77;;;;;;;18.96;100.00;92512.63;5011499;28;20185;-74
2023/07/31 01:32:47;;;;;;;14.73;13.57;;;;;;;19.03;100.00;92506.78;5014404;28;20232;-75
2023/07/31 01:35:13;;;;;;;15.53;14.23;;;;;;;19.02;100.00;92505.22;5010489;28;20201;-75
2023/07/31 01:37:38;;;;;;;15.07;13.77;;;;;;;19.05;100.00;92496.66;5011275;28;20211;-75
2023/07/31 01:40:06;;;;;;;13.73;12.73;;;;;;;18.84;100.00;92502.06;5011925;28;20197;-75
2023/07/31 01:42:31;;;;;;;16.63;15.33;;;;;;;18.74;100.00;92496.47;5011530;28;20186;-75
2023/07/31 01:44:56;;;;;;;17.17;15.43;;;;;;;18.81;100.00;92494.00;5011464;28;20212;-75
2023/07/31 01:47:23;;;;;;;13.63;12.63;;;;;;;18.73;100.00;92497.53;5010767;28;20244;-75
2023/07/31 01:49:48;;;;;;;16.67;14.97;;;;;;;18.60;100.00;92498.66;4999596;28;20265;-74
2023/07/31 01:52:14;;;;;;;16.83;15.07;;;;;;;18.74;100.00;92504.38;5004543;28;20233;-75
2023/07/31 01:54:39;;;;;;;15.37;13.97;;;;;;;19.02;100.00;92513.19;5004338;28;20215;-76
2023/07/31 01:57:05;;;;;;;14.30;13.10;;;;;;;19.11;100.00;92503.25;4997787;28;20260;-75
2023/07/31 01:59:30;;;;;;;20.93;18.93;;;;;;;18.90;100.00;92502.59;5002818;28;20190;-76
2023/07/31 02:01:55;;;;;;;24.93;22.30;;;;;;;19.00;100.00;92504.81;5009066;28;20251;-75
2023/07/31 02:04:21;;;;;;;26.10;23.40;;;;;;;19.08;100.00;92514.53;5006775;28;20198;-75
2023/07/31 02:06:46;;;;;;;28.93;25.60;;;;;;;19.23;100.00;92513.84;5007932;28;20305;-75
2023/07/31 02:09:12;;;;;;;29.47;26.03;;;;;;;19.16;100.00;92522.31;5005558;28;20191;-77
2023/07/31 02:11:37;;;;;;;31.27;27.97;;;;;;;19.12;100.00;92507.44;5010573;28;20227;-76
2023/07/31 02:14:02;;;;;;;31.53;27.97;;;;;;;19.15;100.00;92522.66;5002065;28;20186;-75
2023/07/31 02:16:28;;;;;;;31.63;26.80;;;;;;;19.20;100.00;92517.16;5006709;28;20237;-76
2023/07/31 02:18:53;;;;;;;33.87;27.03;;;;;;;19.16;100.00;92524.97;5010449;28;20197;-75
2023/07/31 02:21:18;;;;;;;31.33;28.03;;;;;;;19.13;100.00;92527.50;4996319;28;20251;-74
2023/07/31 02:23:44;;;;;;;35.03;28.67;;;;;;;19.19;100.00;92521.66;4991424;28;21027;-76
2023/07/31 02:26:09;;;;;;;32.87;28.67;;;;;;;19.27;100.00;92522.63;5000248;28;20247;-75
2023/07/31 02:28:34;;;;;;;30.00;26.90;;;;;;;19.15;100.00;92496.19;5010797;28;20197;-75
2023/07/31 02:31:00;;;;;;;31.43;27.03;;;;;;;19.37;100.00;92524.09;5009997;28;20291;-71
2023/07/31 02:33:25;;;;;;;32.50;27.20;;;;;;;19.43;100.00;92520.88;5010382;28;20233;-72
2023/07/31 02:35:51;;;;;;;31.50;27.80;;;;;;;19.47;100.00;92521.75;5000730;28;20301;-72
2023/07/31 02:38:16;;;;;;;34.27;28.73;;;;;;;19.57;100.00;92525.81;5007615;28;20193;-72
2023/07/31 02:40:41;;;;;;;31.63;27.93;;;;;;;19.51;100.00;92519.22;5000989;28;20233;-72
2023/07/31 02:43:07;;;;;;;31.80;27.10;;;;;;;19.59;100.00;92521.72;5008337;28;20190;-72
2023/07/31 02:45:33;;;;;;;31.07;27.00;;;;;;;19.46;100.00;92503.53;5000176;28;20252;-71
2023/07/31 02:47:58;;;;;;;31.10;27.77;;;;;;;19.52;100.00;92524.16;5006982;28;20184;-72
2023/07/31 02:50:24;;;;;;;33.93;28.30;;;;;;;19.46;100.00;92512.25;5009341;28;20233;-74
2023/07/31 02:52:49;;;;;;;32.60;28.03;;;;;;;19.49;100.00;92529.34;5012727;28;20208;-72
2023/07/31 02:55:15;;;;;;;32.80;29.33;;;;;;;19.57;100.00;92531.88;5000927;28;20272;-72
2023/07/31 02:57:40;;;;;;;31.50;27.77;;;;;;;19.55;100.00;92539.38;5019590;28;20222;-72
2023/07/31 03:00:06;;;;;;;32.43;28.50;;;;;;;19.53;100.00;92536.31;4999966;28;20221;-72
2023/07/31 03:02:32;;;;;;;33.20;29.30;;;;;;;19.66;100.00;92540.47;5009945;28;20196;-71
2023/07/31 03:04:57;;;;;;;30.20;26.83;;;;;;;19.61;100.00;92543.34;5010293;28;20190;-72
2023/07/31 03:07:23;;;;;;;33.37;29.53;;;;;;;19.76;100.00;92550.59;5006624;28;20331;-72
2023/07/31 03:09:48;;;;;;;32.80;27.10;;;;;;;19.65;100.00;92535.50;5010443;28;20202;-72
2023/07/31 03:12:13;;;;;;;30.43;27.03;;;;;;;19.72;100.00;92544.41;5009504;28;20224;-72
2023/07/31 03:14:39;;;;;;;33.10;27.67;;;;;;;19.67;100.00;92552.63;5001397;28;20213;-72
2023/07/31 03:17:05;;;;;;;33.13;27.50;;;;;;;19.81;100.00;92560.19;5005196;28;20260;-72
2023/07/31 03:19:32;;;;;;;29.77;26.27;;;;;;;19.67;100.00;92531.44;5018947;28;20194;-72
2023/07/31 03:21:57;;;;;;;29.20;24.90;;;;;;;19.76;100.00;92555.91;4993479;28;20230;-72
2023/07/31 03:24:23;;;;;;;27.07;24.17;;;;;;;19.75;100.00;92557.00;5002184;28;20250;-72
2023/07/31 03:26:48;;;;;;;31.17;25.17;;;;;;;19.87;100.00;92561.50;5004343;28;20224;-72
2023/07/31 03:29:13;;;;;;;28.50;25.20;;;;;;;19.87;100.00;92550.91;4996000;28;20899;-72
2023/07/31 03:31:39;;;;;;;29.30;25.73;;;;;;;19.87;100.00;92562.28;5005046;28;20297;-72
2023/07/31 03:34:04;;;;;;;33.60;27.37;;;;;;;19.76;100.00;92566.50;5007987;28;20228;-72
2023/07/31 03:36:30;;;;;;;31.60;26.17;;;;;;;19.76;100.00;92563.84;4997107;28;20237;-72
2023/07/31 03:38:55;;;;;;;36.00;26.33;;;;;;;19.75;100.00;92561.53;5009773;28;20196;-72
2023/07/31 03:41:21;;;;;;;30.90;26.83;;;;;;;19.61;100.00;92569.81;5009654;28;20218;-71
2023/07/31 03:43:55;;;;;;;29.40;26.20;;;;;;;19.69;100.00;92576.13;5005268;28;20207;-72
2023/07/31 03:46:22;;;;;;;35.40;27.03;;;;;;;19.70;100.00;92581.09;5009277;28;20236;-72
2023/07/31 03:48:48;;;;;;;33.93;26.50;;;;;;;19.75;100.00;92580.09;5001788;28;20179;-72
2023/07/31 03:51:13;;;;;;;33.07;25.70;;;;;;;19.81;100.00;92579.53;4994987;28;20224;-72
2023/07/31 03:53:39;;;;;;;29.50;25.67;;;;;;;19.82;100.00;92581.06;4999969;28;20214;-72
2023/07/31 03:56:04;;;;;;;31.00;24.80;;;;;;;19.77;100.00;92583.16;5007966;28;20229;-72
2023/07/31 03:58:30;;;;;;;31.00;25.90;;;;;;;19.70;100.00;92564.41;4996210;28;20188;-72
2023/07/31 04:00:55;;;;;;;32.07;26.60;;;;;;;19.65;100.00;92585.84;5005504;28;20239;-72
2023/07/31 04:03:20;;;;;;;31.77;25.97;;;;;;;19.65;100.00;92573.38;5009912;28;20220;-72
2023/07/31 04:05:46;;;;;;;33.07;27.17;;;;;;;19.74;100.00;92584.59;5007504;28;20249;-72
2023/07/31 04:08:11;;;;;;;32.77;25.73;;;;;;;19.70;100.00;92591.69;4999018;28;20199;-72
2023/07/31 04:10:37;;;;;;;29.97;25.40;;;;;;;19.62;100.00;92566.09;5011412;28;20238;-72
2023/07/31 04:13:02;;;;;;;31.03;26.30;;;;;;;19.82;99.36;92589.00;5007490;28;20189;-72
2023/07/31 04:15:27;;;;;;;30.10;24.23;;;;;;;19.82;99.11;92596.94;5010968;28;20236;-72
2023/07/31 04:17:53;;;;;;;32.47;25.97;;;;;;;19.83;98.66;92592.44;5001016;28;20215;-72
2023/07/31 04:20:18;;;;;;;30.60;25.07;;;;;;;19.85;98.16;92585.69;5004909;28;20241;-72
2023/07/31 04:22:43;;;;;;;32.83;26.17;;;;;;;19.93;97.26;92603.31;5013149;28;20200;-69
2023/07/31 04:25:09;;;;;;;31.03;24.03;;;;;;;19.82;96.49;92594.31;5012472;28;20197;-70
2023/07/31 04:27:34;;;;;;;30.20;25.40;;;;;;;19.91;97.17;92594.16;4999186;28;20187;-69
2023/07/31 04:30:00;;;;;;;28.53;24.93;;;;;;;19.91;96.63;92602.88;5008430;28;20195;-71
2023/07/31 04:32:25;;;;;;;32.87;24.97;;;;;;;20.02;95.85;92598.66;5012735;28;20225;-71
2023/07/31 04:34:50;;;;;;;27.97;24.30;;;;;;;20.03;96.19;92604.75;5009807;28;20186;-71
2023/07/31 04:37:16;;;;;;;25.97;23.17;;;;;;;20.01;95.21;92610.38;5000239;28;20254;-67
2023/07/31 04:39:41;;;;;;;28.30;24.77;;;;;;;19.99;94.99;92604.63;5012404;28;20190;-66
2023/07/31 04:42:06;;;;;;;24.27;21.70;;;;;;;20.06;94.23;92606.72;5005112;28;20669;-67
2023/07/31 04:44:32;;;;;;;26.00;23.33;;;;;;;20.17;94.69;92608.56;5011382;28;20824;-67
2023/07/31 04:46:57;;;;;;;23.53;20.93;;;;;;;20.06;93.98;92602.16;5011857;28;20235;-67
2023/07/31 04:49:23;;;;;;;23.47;21.07;;;;;;;20.17;92.53;92600.63;5007955;28;20193;-67
2023/07/31 04:51:48;;;;;;;21.80;19.70;;;;;;;20.21;91.74;92606.81;5007800;28;20229;-67
2023/07/31 04:54:14;;;;;;;22.50;20.07;;;;;;;20.01;92.40;92599.78;5011748;28;20246;-67
2023/07/31 04:56:41;;;;;;;20.63;18.63;;;;;;;20.18;91.40;92610.13;5011304;28;20249;-67
2023/07/31 04:59:06;;;;;;;20.17;18.23;;;;;;;20.36;89.79;92595.47;5005531;28;20202;-68
2023/07/31 05:01:32;;;;;;;22.00;19.73;;;;;;;20.79;88.79;92601.88;5009920;28;20278;-67
2023/07/31 05:03:57;;;;;;;19.77;17.97;;;;;;;20.84;86.89;92593.69;5006991;28;20782;-67
2023/07/31 05:06:23;;;;;;;21.48;19.30;;;;;;;21.29;84.88;92594.03;4995463;28;20230;-69
2023/07/31 05:08:48;;;;;;;22.38;20.27;;;;;;;21.48;84.81;92597.53;5011601;28;20194;-69
2023/07/31 05:11:13;;;;;;;20.20;18.40;;;;;;;21.31;84.66;92602.44;5008616;28;20233;-69
2023/07/31 05:13:39;;;;;;;21.20;19.30;;;;;;;21.30;84.77;92603.53;5012558;28;20273;-69
2023/07/31 05:16:04;;;;;;;21.13;19.03;;;;;;;21.02;87.08;92600.22;5001970;28;20269;-69
2023/07/31 05:18:30;;;;;;;20.27;18.30;;;;;;;21.09;85.59;92598.50;4991794;28;20194;-69
2023/07/31 05:20:55;;;;;;;21.35;19.25;;;;;;;20.91;86.77;92601.81;4984707;28;20231;-68
2023/07/31 05:23:20;;;;;;;20.10;18.25;;;;;;;21.08;85.61;92604.16;4990171;28;20195;-67
2023/07/31 05:25:46;;;;;;;20.85;18.90;;;;;;;21.28;84.10;92595.16;4996540;28;20236;-68
2023/07/31 05:28:12;;;;;;;19.02;17.23;;;;;;;21.46;83.78;92604.31;5011546;28;20193;-69
2023/07/31 05:30:38;;;;;;;19.10;17.35;;;;;;;21.41;83.10;92593.94;5008819;28;20236;-70
2023/07/31 05:33:03;;;;;;;20.05;18.25;;;;;;;21.47;83.60;92600.53;5008972;28;20315;-69
2023/07/31 05:35:28;;;;;;;19.10;17.27;;;;;;;21.54;82.67;92603.34;5005731;28;20238;-69
2023/07/31 05:37:54;;;;;;;17.58;15.93;;;;;;;21.59;82.84;92603.06;5010816;28;20219;-70
2023/07/31 05:40:19;;;;;;;19.38;17.55;;;;;;;21.82;84.23;92596.03;5009347;28;20250;-70
2023/07/31 05:42:44;;;;;;;18.30;16.58;;;;;;;21.50;83.13;92600.63;5007240;28;20222;-69
2023/07/31 05:45:10;;;;;;;19.23;17.42;;;;;;;21.55;83.14;92599.56;5002758;28;20211;-74
2023/07/31 05:47:35;;;;;;;16.98;15.55;;;;;;;21.61;81.64;92595.53;5005475;28;20190;-74
2023/07/31 05:50:01;;;;;;;15.93;14.50;;;;;;;21.95;81.29;92595.56;5009909;28;20236;-68
2023/07/31 05:52:28;;;;;;;15.50;14.20;;;;;;;22.09;78.60;92590.53;5006669;28;20192;-68
2023/07/31 05:54:54;;;;;;;16.15;14.75;;;;;;;22.30;78.08;92595.53;5005927;28;20228;-69
2023/07/31 05:57:20;;;;;;;15.20;13.70;;;;;;;21.86;77.28;92597.66;5010393;28;20248;-70
2023/07/31 05:59:45;;;;;;;15.35;14.02;;;;;;;22.50;76.22;92607.69;5010596;28;20633;-67
2023/07/31 06:02:11;;;;;;;14.38;13.10;;;;;;;24.23;70.18;92609.41;5010275;28;20240;-68
2023/07/31 06:04:36;;;;;;;13.45;12.35;;;;;;;25.67;63.18;92621.59;5009916;28;20282;-72
2023/07/31 06:07:02;;;;;;;14.35;13.23;;;;;;;25.51;61.58;92612.31;5010343;28;20229;-72
2023/07/31 06:09:28;;;;;;;13.50;12.30;;;;;;;26.64;58.76;92620.69;4997261;28;20191;-73
2023/07/31 06:11:53;;;;;;;13.45;12.32;;;;;;;26.60;56.81;92627.88;5007594;28;20245;-72
2023/07/31 06:14:19;;;;;;;12.13;11.23;;;;;;;28.10;53.19;92628.53;5010540;28;20183;-72
2023/07/31 06:16:44;;;;;;;11.38;10.57;;;;;;;27.77;51.14;92626.22;5010564;28;20223;-71
2023/07/31 06:19:10;;;;;;;12.20;11.27;;;;;;;28.61;50.11;92631.50;4997990;28;20203;-72
2023/07/31 06:21:37;;;;;;;10.45;9.75;;;;;;;28.44;49.02;92632.28;5009209;28;20237;-71
2023/07/31 06:24:03;;;;;;;11.45;10.55;;;;;;;29.98;45.89;92621.88;5008497;28;20183;-72
2023/07/31 06:26:29;;;;;;;11.60;10.38;;;;;;;28.98;47.69;92628.28;5009797;28;20227;-72
2023/07/31 06:28:54;;;;;;;10.45;9.70;;;;;;;29.93;45.57;92638.44;5009893;28;20213;-72
2023/07/31 06:31:22;;;;;;;10.93;10.05;;;;;;;28.89;47.55;92636.75;5006480;28;20215;-70
2023/07/31 06:33:49;;;;;;;10.70;9.90;;;;;;;28.66;48.99;92620.34;5005639;28;20303;-69
2023/07/31 06:36:14;;;;;;;12.18;9.32;;;;;;;28.82;48.14;92620.66;5008091;28;20246;-69
2023/07/31 06:38:39;;;;;;;11.15;10.27;;;;;;;27.30;51.44;92607.84;5008814;28;20175;-68
2023/07/31 06:41:05;;;;;;;9.95;9.25;;;;;;;25.35;57.61;92607.22;5009837;28;20295;-68
2023/07/31 06:43:30;;;;;;;9.63;8.93;;;;;;;23.39;64.03;92598.25;5009493;28;20174;-68
2023/07/31 06:45:55;;;;;;;10.18;9.38;;;;;;;22.91;66.02;92601.63;5009085;28;20235;-70
2023/07/31 06:48:21;;;;;;;9.85;9.15;;;;;;;22.91;65.75;92603.53;5006911;28;20179;-70
2023/07/31 06:50:46;;;;;;;10.27;9.57;;;;;;;22.82;66.37;92603.75;5001780;28;20269;-69
2023/07/31 06:53:11;;;;;;;9.07;8.35;;;;;;;23.20;66.40;92610.88;5009646;28;20195;-69
2023/07/31 06:55:37;;;;;;;11.45;10.65;;;;;;;23.04;67.20;92608.31;5007019;28;20225;-69
2023/07/31 06:58:02;;;;;;;10.80;10.00;;;;;;;22.13;70.49;92627.84;5009354;28;20208;-69
2023/07/31 07:00:28;;;;;;;10.48;9.45;;;;;;;21.96;70.78;92628.25;5004664;28;20715;-69
2023/07/31 07:02:54;;;;;;;11.75;10.90;;;;;;;22.04;72.10;92614.75;4980985;28;20201;-69
2023/07/31 07:05:19;;;;;;;12.25;11.35;;;;;;;22.53;70.90;92598.25;4984639;28;20242;-69
2023/07/31 07:07:45;;;;;;;10.48;9.85;;;;;;;22.75;69.06;92608.94;4983638;28;20191;-68
2023/07/31 07:10:10;;;;;;;11.52;10.48;;;;;;;22.13;70.59;92622.53;4985233;28;20187;-67
2023/07/31 07:12:36;;;;;;;10.52;9.80;;;;;;;22.78;69.21;92616.22;4976772;28;20216;-69
2023/07/31 07:15:02;;;;;;;10.85;10.18;;;;;;;22.48;69.77;92617.91;4974201;28;20204;-70
2023/07/31 07:17:32;;;;;;;10.90;10.10;;;;;;;22.71;70.66;92612.69;4978946;28;20208;-70
2023/07/31 07:19:58;;;;;;;11.77;10.65;;;;;;;22.78;69.21;92621.56;4987977;28;20194;-69
2023/07/31 07:22:25;;;;;;;11.20;10.48;;;;;;;22.77;69.11;92616.59;4973137;28;20222;-70
2023/07/31 07:24:51;;;;;;;10.77;10.10;;;;;;;22.87;68.22;92611.44;4992423;28;20205;-69
2023/07/31 07:27:16;;;;;;;11.35;10.20;;;;;;;22.99;70.05;92613.19;5005107;28;20225;-69
2023/07/31 07:29:41;;;;;;;10.95;9.95;;;;;;;22.90;68.94;92621.38;5007111;28;20931;-69
2023/07/31 07:32:07;;;;;;;9.82;9.23;;;;;;;22.77;68.78;92614.66;4997149;28;20234;-69
2023/07/31 07:34:32;;;;;;;10.07;9.20;;;;;;;22.67;68.13;92617.94;4990547;28;20249;-71
2023/07/31 07:36:58;;;;;;;10.52;9.82;;;;;;;22.69;68.17;92623.69;4993363;28;21735;-70
2023/07/31 07:39:23;;;;;;;10.20;9.50;;;;;;;22.62;68.89;92615.53;4996283;28;20195;-71
2023/07/31 07:41:48;;;;;;;10.07;9.48;;;;;;;23.01;68.88;92624.22;4990471;28;20218;-71
2023/07/31 07:44:14;;;;;;;9.93;9.23;;;;;;;22.90;67.34;92634.69;4991653;28;20212;-70
2023/07/31 07:46:40;;;;;;;9.65;8.95;;;;;;;22.88;68.61;92631.63;5001167;28;20233;-70
2023/07/31 07:49:05;;;;;;;11.38;10.68;;;;;;;23.21;66.70;92634.47;4994814;28;20199;-69
2023/07/31 07:51:31;;;;;;;10.13;9.52;;;;;;;23.24;66.15;92625.78;4995621;28;20245;-69
2023/07/31 07:54:00;;;;;;;9.07;8.55;;;;;;;23.44;65.21;92637.19;5005333;28;20202;-65
2023/07/31 07:56:26;;;;;;;9.38;8.85;;;;;;;22.89;67.34;92654.47;5007310;28;20222;-66
2023/07/31 07:58:52;;;;;;;10.25;9.60;;;;;;;22.91;67.16;92646.13;5002923;28;20216;-68
2023/07/31 08:01:18;;;;;;;10.52;9.63;;;;;;;22.92;68.12;92640.44;5007987;28;20700;-69
2023/07/31 08:03:43;;;;;;;10.38;9.68;;;;;;;23.09;66.38;92636.56;5002856;28;20186;-70
2023/07/31 08:06:10;;;;;;;9.75;9.15;;;;;;;23.28;65.65;92639.97;5006197;28;20600;-68
2023/07/31 08:08:36;;;;;;;8.77;8.32;;;;;;;23.10;66.83;92654.84;5001915;28;20201;-69
2023/07/31 08:11:02;;;;;;;9.00;8.50;;;;;;;23.30;65.39;92637.72;5007452;28;20995;-70
2023/07/31 08:13:27;;;;;;;10.20;8.98;;;;;;;23.50;65.95;92641.84;5001784;28;20201;-69
2023/07/31 08:15:52;;;;;;;10.45;9.65;;;;;;;23.38;66.42;92647.38;5003996;28;20230;-69
2023/07/31 08:18:18;;;;;;;10.68;9.20;;;;;;;23.35;65.14;92640.09;5004564;28;20237;-69
2023/07/31 08:20:44;;;;;;;8.73;8.13;;;;;;;23.41;65.54;92638.66;5005458;28;20227;-68
2023/07/31 08:23:09;;;;;;;8.40;7.90;;;;;;;23.35;65.79;92645.41;5009771;28;20271;-68
2023/07/31 08:25:35;;;;;;;8.38;7.88;;;;;;;23.71;64.45;92644.84;4999919;28;20282;-68
2023/07/31 08:28:02;;;;;;;9.18;8.48;;;;;;;23.35;65.52;92649.97;5011954;28;20222;-68
2023/07/31 08:30:27;;;;;;;9.32;8.73;;;;;;;23.72;64.44;92643.72;5010505;28;20247;-70
2023/07/31 08:32:52;;;;;;;8.75;8.25;;;;;;;22.93;65.64;92639.31;5011445;28;20225;-70
2023/07/31 08:35:18;;;;;;;9.30;8.70;;;;;;;22.86;66.92;92654.41;5010944;28;21827;-69
2023/07/31 08:37:43;;;;;;;9.45;8.85;;;;;;;23.32;64.38;92643.47;5002524;28;20226;-68
2023/07/31 08:40:09;;;;;;;9.50;8.80;;;;;;;23.10;65.60;92638.84;5009933;28;20187;-68
2023/07/31 08:42:43;;;;;;;9.07;8.57;;;;;;;23.71;65.46;92642.19;5010398;28;20783;-69
2023/07/31 08:45:09;;;;;;;8.27;7.78;;;;;;;24.18;62.24;92651.63;5010022;28;20197;-68
2023/07/31 08:47:35;;;;;;;8.57;8.07;;;;;;;24.27;61.40;92652.91;5008989;28;20197;-68
2023/07/31 08:50:01;;;;;;;8.02;7.60;;;;;;;23.44;62.66;92643.25;5004877;28;20206;-67
2023/07/31 08:52:27;;;;;;;9.43;8.65;;;;;;;23.37;63.58;92640.50;5009885;28;20198;-68
2023/07/31 08:54:52;;;;;;;9.52;8.93;;;;;;;23.92;63.13;92649.72;5016792;28;20222;-68
2023/07/31 08:57:18;;;;;;;9.38;8.88;;;;;;;23.95;61.10;92662.34;5001710;28;20230;-68
2023/07/31 08:59:44;;;;;;;9.40;8.77;;;;;;;23.38;63.14;92659.91;5003183;28;20196;-68
2023/07/31 09:02:11;;;;;;;7.95;7.45;;;;;;;23.07;64.12;92650.22;5007843;28;20238;-67
2023/07/31 09:04:37;;;;;;;8.60;8.05;;;;;;;23.28;63.29;92639.97;5010674;28;20189;-68
2023/07/31 09:07:04;;;;;;;8.80;8.30;;;;;;;23.38;61.71;92660.69;5010943;28;20230;-68
2023/07/31 09:09:31;;;;;;;9.05;8.45;;;;;;;23.52;61.94;92666.25;5010949;28;20193;-68
2023/07/31 09:11:57;;;;;;;9.68;9.05;;;;;;;23.24;62.82;92652.41;5001002;28;20242;-69
2023/07/31 09:14:25;;;;;;;8.60;8.10;;;;;;;23.21;62.41;92650.47;4997823;28;20194;-69
2023/07/31 09:16:59;;;;;;;8.70;8.20;;;;;;;23.61;61.93;92648.09;5010248;28;20221;-68
2023/07/31 09:19:37;;;;;;;9.50;8.93;;;;;;;24.04;62.54;92638.09;5010069;28;20182;-69
2023/07/31 09:22:03;;;;;;;12.65;11.63;;;;;;;24.65;58.91;92647.28;4990099;28;20236;-70
2023/07/31 09:24:30;;;;;;;8.75;8.15;;;;;;;23.95;59.26;92630.34;4997464;28;20186;-68
2023/07/31 09:26:58;;;;;;;8.55;7.95;;;;;;;24.10;59.59;92639.31;5009557;28;20238;-69
2023/07/31 09:29:24;;;;;;;9.30;8.73;;;;;;;24.47;59.05;92640.19;5010431;28;20190;-70
2023/07/31 09:31:50;;;;;;;7.97;7.40;;;;;;;24.45;58.22;92637.13;5008505;28;20213;-70
2023/07/31 09:34:16;;;;;;;9.07;8.35;;;;;;;24.44;58.77;92630.22;5010186;28;20191;-68
2023/07/31 09:36:42;;;;;;;8.40;7.90;;;;;;;24.39;59.59;92630.56;5008988;28;20231;-69
2023/07/31 09:39:10;;;;;;;10.07;9.38;;;;;;;24.56;59.06;92617.41;5009520;28;20196;-69
2023/07/31 09:41:44;;;;;;;9.10;8.50;;;;;;;25.03;56.70;92630.16;5004214;28;20245;-69
2023/07/31 09:44:10;;;;;;;9.60;9.00;;;;;;;24.86;57.86;92630.75;5008578;28;20204;-69
2023/07/31 09:46:39;;;;;;;8.57;7.97;;;;;;;25.02;56.96;92625.97;5008883;28;20237;-69
2023/07/31 09:49:11;;;;;;;9.07;8.38;;;;;;;25.03;55.93;92627.47;5010007;28;20253;-69
2023/07/31 09:51:38;;;;;;;9.07;8.48;;;;;;;25.15;57.50;92624.56;5006540;28;20231;-67
2023/07/31 09:54:15;;;;;;;8.75;8.18;;;;;;;25.39;55.93;92625.97;5010095;28;20192;-68
2023/07/31 09:56:48;;;;;;;9.35;8.75;;;;;;;25.50;55.82;92616.88;5009414;28;20234;-68
2023/07/31 09:59:16;;;;;;;14.48;13.27;;;;;;;25.82;54.14;92615.19;5008983;28;20190;-67
2023/07/31 10:01:42;;;;;;;9.43;8.82;;;;;;;25.70;54.25;92625.44;4995567;28;20218;-67
2023/07/31 10:04:09;;;;;;;8.30;7.70;;;;;;;25.45;54.37;92613.78;4989987;28;20196;-67
2023/07/31 10:06:36;;;;;;;9.95;9.23;;;;;;;24.99;56.60;92614.13;4988561;28;20239;-67
2023/07/31 10:09:10;;;;;;;9.27;8.68;;;;;;;25.25;55.52;92622.00;4989244;28;20197;-66
2023/07/31 10:11:53;;;;;;;9.75;9.13;;;;;;;25.32;54.38;92615.94;4989388;28;20234;-68
2023/07/31 10:14:23;;;;;;;9.20;8.60;;;;;;;25.46;54.36;92601.94;4988989;28;20212;-67
2023/07/31 10:16:49;;;;;;;8.43;7.93;;;;;;;26.24;53.27;92633.47;4989458;28;20234;-67
2023/07/31 10:19:14;;;;;;;8.48;7.97;;;;;;;25.95;52.02;92627.13;4989565;28;20201;-67
2023/07/31 10:21:42;;;;;;;9.02;8.45;;;;;;;26.12;51.81;92615.81;5002476;28;20231;-68
2023/07/31 10:24:09;;;;;;;8.90;8.15;;;;;;;26.95;48.97;92621.91;5009099;28;20179;-68
2023/07/31 10:26:37;;;;;;;9.18;8.52;;;;;;;26.35;51.17;92602.91;5008012;28;20236;-68
2023/07/31 10:29:03;;;;;;;8.10;7.50;;;;;;;25.91;51.93;92606.84;5009469;28;20194;-66
2023/07/31 10:31:29;;;;;;;8.68;8.18;;;;;;;25.76;51.19;92603.31;5012905;28;21004;-68
2023/07/31 10:33:57;;;;;;;8.43;7.93;;;;;;;26.18;50.76;92616.97;5009041;28;20232;-68
2023/07/31 10:36:22;;;;;;;8.38;7.82;;;;;;;25.96;49.94;92607.25;4997429;28;20234;-67
2023/07/31 10:38:51;;;;;;;8.65;8.13;;;;;;;26.22;50.14;92615.09;4989511;28;20192;-67
2023/07/31 10:41:16;;;;;;;8.52;8.02;;;;;;;26.13;49.75;92605.88;4987758;28;20323;-67
2023/07/31 10:43:42;;;;;;;9.43;8.77;;;;;;;25.73;50.43;92611.34;4988919;28;20199;-68
2023/07/31 10:46:12;;;;;;;9.20;8.25;;;;;;;25.89;49.85;92609.13;4985530;28;20239;-68
2023/07/31 10:48:41;;;;;;;8.90;8.20;;;;;;;25.85;50.56;92601.09;4989067;28;20251;-67
2023/07/31 10:51:12;;;;;;;9.30;8.60;;;;;;;25.93;50.37;92601.91;4994723;28;20254;-67
2023/07/31 10:53:39;;;;;;;8.75;8.15;;;;;;;25.92;51.21;92595.78;5006430;28;20222;-67
2023/07/31 10:56:07;;;;;;;8.65;8.15;;;;;;;25.34;50.92;92597.63;4994153;28;20222;-68
2023/07/31 10:58:33;;;;;;;9.00;8.32;;;;;;;25.00;52.14;92591.59;4989974;28;20285;-67
2023/07/31 11:01:01;;;;;;;8.07;7.38;;;;;;;25.38;51.45;92587.75;4995209;28;20966;-67
2023/07/31 11:03:41;;;;;;;8.73;8.20;;;;;;;25.20;51.77;92587.56;5008916;28;21067;-67
2023/07/31 11:06:06;;;;;;;8.80;8.30;;;;;;;25.15;51.34;92579.88;5006271;28;20217;-67
2023/07/31 11:08:33;;;;;;;8.57;7.88;;;;;;;25.09;51.19;92585.97;5003516;28;20281;-66
2023/07/31 11:11:02;;;;;;;8.68;8.18;;;;;;;25.60;50.26;92586.78;5006546;28;20249;-67
2023/07/31 11:13:28;;;;;;;9.10;8.60;;;;;;;25.59;48.55;92577.22;5001409;28;20678;-67
2023/07/31 11:15:53;;;;;;;7.78;7.28;;;;;;;25.95;48.58;92578.97;5001388;28;20231;-67